sensor_id;sensor_type;location;lat;lon;timestamp;temperature;humidity
2577;DHT22;1298;51.252;6.802;2022-12-18T00:00:32;-3.20;99.90
2577;DHT22;1298;51.252;6.802;2022-12-18T00:03:17;-3.20;99.90
2577;DHT22;1298;51.252;6.802;2022-12-18T00:06:02;-3.30;99.90
2577;DHT22;1298;51.252;6.802;2022-12-18T00:08:54;-3.20;99.90
2577;DHT22;1298;51.252;6.802;2022-12-18T00:11:39;-3.30;99.90
2577;DHT22;1298;51.252;6.802;2022-12-18T00:14:25;-3.30;99.90
2577;DHT22;1298;51.252;6.802;2022-12-18T00:17:11;-3.40;99.90
2577;DHT22;1298;51.252;6.802;2022-12-18T00:19:57;-3.40;99.90
2577;DHT22;1298;51.252;6.802;2022-12-18T00:22:42;-3.40;99.90
2577;DHT22;1298;51.252;6.802;2022-12-18T00:25:29;-3.40;99.90
2577;DHT22;1298;51.252;6.802;2022-12-18T00:28:17;-3.40;99.90
2577;DHT22;1298;51.252;6.802;2022-12-18T00:31:02;-3.40;99.90
2577;DHT22;1298;51.252;6.802;2022-12-18T00:33:49;-3.40;99.90
2577;DHT22;1298;51.252;6.802;2022-12-18T00:36:35;-3.40;99.90
2577;DHT22;1298;51.252;6.802;2022-12-18T00:39:20;-3.30;99.90
2577;DHT22;1298;51.252;6.802;2022-12-18T00:42:08;-3.30;99.90
2577;DHT22;1298;51.252;6.802;2022-12-18T00:45:13;-3.30;99.90
2577;DHT22;1298;51.252;6.802;2022-12-18T00:47:58;-3.40;99.90
2577;DHT22;1298;51.252;6.802;2022-12-18T00:50:44;-3.40;99.90
2577;DHT22;1298;51.252;6.802;2022-12-18T00:53:30;-3.40;99.90
2577;DHT22;1298;51.252;6.802;2022-12-18T00:56:18;-3.30;99.90
2577;DHT22;1298;51.252;6.802;2022-12-18T00:59:05;-3.40;99.90
2577;DHT22;1298;51.252;6.802;2022-12-18T01:01:50;-3.40;99.90
2577;DHT22;1298;51.252;6.802;2022-12-18T01:04:36;-3.50;99.90
2577;DHT22;1298;51.252;6.802;2022-12-18T01:07:21;-3.50;99.90
2577;DHT22;1298;51.252;6.802;2022-12-18T01:10:07;-3.50;99.90
2577;DHT22;1298;51.252;6.802;2022-12-18T01:12:52;-3.50;99.90
2577;DHT22;1298;51.252;6.802;2022-12-18T01:15:39;-3.50;99.90
2577;DHT22;1298;51.252;6.802;2022-12-18T01:18:25;-3.50;99.90
2577;DHT22;1298;51.252;6.802;2022-12-18T01:21:10;-3.60;99.90
2577;DHT22;1298;51.252;6.802;2022-12-18T01:23:56;-3.60;99.90
2577;DHT22;1298;51.252;6.802;2022-12-18T01:26:42;-3.50;99.90
2577;DHT22;1298;51.252;6.802;2022-12-18T01:29:27;-3.50;99.90
2577;DHT22;1298;51.252;6.802;2022-12-18T01:32:14;-3.40;99.90
2577;DHT22;1298;51.252;6.802;2022-12-18T01:34:59;-3.40;99.90
2577;DHT22;1298;51.252;6.802;2022-12-18T01:37:45;-3.40;99.90
2577;DHT22;1298;51.252;6.802;2022-12-18T01:40:30;-3.40;99.90
2577;DHT22;1298;51.252;6.802;2022-12-18T01:43:15;-3.30;99.90
2577;DHT22;1298;51.252;6.802;2022-12-18T01:46:01;-3.40;99.90
2577;DHT22;1298;51.252;6.802;2022-12-18T01:48:50;-3.50;99.90
2577;DHT22;1298;51.252;6.802;2022-12-18T01:51:36;-3.50;99.90
2577;DHT22;1298;51.252;6.802;2022-12-18T01:54:22;-3.40;99.90
2577;DHT22;1298;51.252;6.802;2022-12-18T01:57:07;-3.30;99.90
2577;DHT22;1298;51.252;6.802;2022-12-18T01:59:53;-3.40;99.90
2577;DHT22;1298;51.252;6.802;2022-12-18T02:02:41;-3.40;99.90
2577;DHT22;1298;51.252;6.802;2022-12-18T02:05:32;-3.50;99.90
2577;DHT22;1298;51.252;6.802;2022-12-18T02:08:20;-3.60;99.90
2577;DHT22;1298;51.252;6.802;2022-12-18T02:11:07;-3.60;99.90
2577;DHT22;1298;51.252;6.802;2022-12-18T02:13:57;-3.70;99.90
2577;DHT22;1298;51.252;6.802;2022-12-18T02:16:48;-3.60;99.90
2577;DHT22;1298;51.252;6.802;2022-12-18T02:19:39;-3.70;99.90
2577;DHT22;1298;51.252;6.802;2022-12-18T02:22:32;-3.60;99.90
2577;DHT22;1298;51.252;6.802;2022-12-18T02:25:26;-3.50;99.90
2577;DHT22;1298;51.252;6.802;2022-12-18T02:28:15;-3.50;99.90
2577;DHT22;1298;51.252;6.802;2022-12-18T02:31:02;-3.50;99.90
2577;DHT22;1298;51.252;6.802;2022-12-18T02:33:50;-3.50;99.90
2577;DHT22;1298;51.252;6.802;2022-12-18T02:36:40;-3.50;99.90
2577;DHT22;1298;51.252;6.802;2022-12-18T02:39:27;-3.50;99.90
2577;DHT22;1298;51.252;6.802;2022-12-18T02:42:14;-3.50;99.90
2577;DHT22;1298;51.252;6.802;2022-12-18T02:45:01;-3.50;99.90
2577;DHT22;1298;51.252;6.802;2022-12-18T02:47:48;-3.50;99.90
2577;DHT22;1298;51.252;6.802;2022-12-18T02:50:35;-3.50;99.90
2577;DHT22;1298;51.252;6.802;2022-12-18T02:53:22;-3.50;99.90
2577;DHT22;1298;51.252;6.802;2022-12-18T02:56:10;-3.50;99.90
2577;DHT22;1298;51.252;6.802;2022-12-18T02:58:58;-3.50;99.90
2577;DHT22;1298;51.252;6.802;2022-12-18T03:01:48;-3.50;99.90
2577;DHT22;1298;51.252;6.802;2022-12-18T03:04:37;-3.50;99.90
2577;DHT22;1298;51.252;6.802;2022-12-18T03:07:26;-3.50;99.90
2577;DHT22;1298;51.252;6.802;2022-12-18T03:10:13;-3.60;99.90
2577;DHT22;1298;51.252;6.802;2022-12-18T03:13:00;-3.60;99.90
2577;DHT22;1298;51.252;6.802;2022-12-18T03:15:47;-3.60;99.90
2577;DHT22;1298;51.252;6.802;2022-12-18T03:18:35;-3.50;99.90
2577;DHT22;1298;51.252;6.802;2022-12-18T03:21:23;-3.50;99.90
2577;DHT22;1298;51.252;6.802;2022-12-18T03:24:10;-3.40;99.90
2577;DHT22;1298;51.252;6.802;2022-12-18T03:26:57;-3.40;99.90
2577;DHT22;1298;51.252;6.802;2022-12-18T03:29:45;-3.50;99.90
2577;DHT22;1298;51.252;6.802;2022-12-18T03:32:32;-3.40;99.90
2577;DHT22;1298;51.252;6.802;2022-12-18T03:35:20;-3.40;99.90
2577;DHT22;1298;51.252;6.802;2022-12-18T03:38:07;-3.30;99.90
2577;DHT22;1298;51.252;6.802;2022-12-18T03:40:56;-3.40;99.90
2577;DHT22;1298;51.252;6.802;2022-12-18T03:43:45;-3.40;99.90
2577;DHT22;1298;51.252;6.802;2022-12-18T03:46:36;-3.40;99.90
2577;DHT22;1298;51.252;6.802;2022-12-18T03:49:27;-3.40;99.90
2577;DHT22;1298;51.252;6.802;2022-12-18T03:52:20;-3.30;99.90
2577;DHT22;1298;51.252;6.802;2022-12-18T03:55:07;-3.40;99.90
2577;DHT22;1298;51.252;6.802;2022-12-18T03:57:53;-3.40;99.90
2577;DHT22;1298;51.252;6.802;2022-12-18T04:00:39;-3.50;99.90
2577;DHT22;1298;51.252;6.802;2022-12-18T04:03:25;-3.50;99.90
2577;DHT22;1298;51.252;6.802;2022-12-18T04:06:11;-3.50;99.90
2577;DHT22;1298;51.252;6.802;2022-12-18T04:08:58;-3.50;99.90
2577;DHT22;1298;51.252;6.802;2022-12-18T04:11:44;-3.60;99.90
2577;DHT22;1298;51.252;6.802;2022-12-18T04:14:30;-3.60;99.90
2577;DHT22;1298;51.252;6.802;2022-12-18T04:17:19;-3.60;99.90
2577;DHT22;1298;51.252;6.802;2022-12-18T04:20:05;-3.60;99.90
2577;DHT22;1298;51.252;6.802;2022-12-18T04:22:50;-3.70;99.90
2577;DHT22;1298;51.252;6.802;2022-12-18T04:25:37;-3.60;99.90
2577;DHT22;1298;51.252;6.802;2022-12-18T04:28:22;-3.70;99.90
2577;DHT22;1298;51.252;6.802;2022-12-18T04:31:07;-3.70;99.90
2577;DHT22;1298;51.252;6.802;2022-12-18T04:33:52;-3.70;99.90
2577;DHT22;1298;51.252;6.802;2022-12-18T04:36:38;-3.70;99.90
2577;DHT22;1298;51.252;6.802;2022-12-18T04:39:23;-3.70;99.90
2577;DHT22;1298;51.252;6.802;2022-12-18T04:42:09;-3.80;99.90
2577;DHT22;1298;51.252;6.802;2022-12-18T04:44:54;-3.80;99.90
2577;DHT22;1298;51.252;6.802;2022-12-18T04:47:40;-3.80;99.90
2577;DHT22;1298;51.252;6.802;2022-12-18T04:50:25;-3.80;99.90
2577;DHT22;1298;51.252;6.802;2022-12-18T04:53:11;-3.80;99.90
2577;DHT22;1298;51.252;6.802;2022-12-18T04:56:03;-3.80;99.90
2577;DHT22;1298;51.252;6.802;2022-12-18T04:58:50;-3.70;99.90
2577;DHT22;1298;51.252;6.802;2022-12-18T05:01:36;-3.80;99.90
2577;DHT22;1298;51.252;6.802;2022-12-18T05:04:21;-3.80;99.90
2577;DHT22;1298;51.252;6.802;2022-12-18T05:07:06;-3.80;99.90
2577;DHT22;1298;51.252;6.802;2022-12-18T05:09:51;-3.80;99.90
2577;DHT22;1298;51.252;6.802;2022-12-18T05:12:37;-3.70;99.90
2577;DHT22;1298;51.252;6.802;2022-12-18T05:15:43;-3.70;99.90
2577;DHT22;1298;51.252;6.802;2022-12-18T05:18:35;-3.80;99.90
2577;DHT22;1298;51.252;6.802;2022-12-18T05:21:21;-3.80;99.90
2577;DHT22;1298;51.252;6.802;2022-12-18T05:24:06;-3.80;99.90
2577;DHT22;1298;51.252;6.802;2022-12-18T05:26:51;-3.80;99.90
2577;DHT22;1298;51.252;6.802;2022-12-18T05:29:37;-3.80;99.90
2577;DHT22;1298;51.252;6.802;2022-12-18T05:32:23;-3.80;99.90
2577;DHT22;1298;51.252;6.802;2022-12-18T05:35:09;-3.90;99.90
2577;DHT22;1298;51.252;6.802;2022-12-18T05:37:55;-3.80;99.90
2577;DHT22;1298;51.252;6.802;2022-12-18T05:40:41;-3.90;99.90
2577;DHT22;1298;51.252;6.802;2022-12-18T05:43:26;-3.90;99.90
2577;DHT22;1298;51.252;6.802;2022-12-18T05:46:13;-3.90;99.90
2577;DHT22;1298;51.252;6.802;2022-12-18T05:49:00;-3.90;99.90
2577;DHT22;1298;51.252;6.802;2022-12-18T05:51:45;-3.90;99.90
2577;DHT22;1298;51.252;6.802;2022-12-18T05:54:30;-3.90;99.90
2577;DHT22;1298;51.252;6.802;2022-12-18T05:57:15;-3.90;99.90
2577;DHT22;1298;51.252;6.802;2022-12-18T06:00:01;-4.00;99.90
2577;DHT22;1298;51.252;6.802;2022-12-18T06:02:47;-4.00;99.90
2577;DHT22;1298;51.252;6.802;2022-12-18T06:05:35;-4.00;99.90
2577;DHT22;1298;51.252;6.802;2022-12-18T06:08:21;-4.00;99.90
2577;DHT22;1298;51.252;6.802;2022-12-18T06:11:06;-3.90;99.90
2577;DHT22;1298;51.252;6.802;2022-12-18T06:13:51;-4.00;99.90
2577;DHT22;1298;51.252;6.802;2022-12-18T06:16:37;-3.90;99.90
2577;DHT22;1298;51.252;6.802;2022-12-18T06:19:22;-3.90;99.90
2577;DHT22;1298;51.252;6.802;2022-12-18T06:22:08;-3.90;99.90
2577;DHT22;1298;51.252;6.802;2022-12-18T06:24:54;-3.90;99.90
2577;DHT22;1298;51.252;6.802;2022-12-18T06:27:39;-3.80;99.90
2577;DHT22;1298;51.252;6.802;2022-12-18T06:30:24;-3.80;99.90
2577;DHT22;1298;51.252;6.802;2022-12-18T06:33:10;-3.70;99.90
2577;DHT22;1298;51.252;6.802;2022-12-18T06:35:58;-3.70;99.90
2577;DHT22;1298;51.252;6.802;2022-12-18T06:38:45;-3.70;99.90
2577;DHT22;1298;51.252;6.802;2022-12-18T06:41:30;-3.80;99.90
2577;DHT22;1298;51.252;6.802;2022-12-18T06:44:16;-3.80;99.90
2577;DHT22;1298;51.252;6.802;2022-12-18T06:47:01;-3.80;99.90
2577;DHT22;1298;51.252;6.802;2022-12-18T06:49:46;-3.80;99.90
2577;DHT22;1298;51.252;6.802;2022-12-18T06:52:31;-3.80;99.90
2577;DHT22;1298;51.252;6.802;2022-12-18T06:55:18;-3.80;99.90
2577;DHT22;1298;51.252;6.802;2022-12-18T06:58:03;-3.80;99.90
2577;DHT22;1298;51.252;6.802;2022-12-18T07:00:48;-3.80;99.90
2577;DHT22;1298;51.252;6.802;2022-12-18T07:03:34;-3.70;99.90
2577;DHT22;1298;51.252;6.802;2022-12-18T07:06:19;-3.70;99.90
2577;DHT22;1298;51.252;6.802;2022-12-18T07:09:05;-3.80;99.90
2577;DHT22;1298;51.252;6.802;2022-12-18T07:11:52;-3.90;99.90
2577;DHT22;1298;51.252;6.802;2022-12-18T07:14:37;-3.90;99.90
2577;DHT22;1298;51.252;6.802;2022-12-18T07:17:22;-3.90;99.90
2577;DHT22;1298;51.252;6.802;2022-12-18T07:20:08;-3.80;99.90
2577;DHT22;1298;51.252;6.802;2022-12-18T07:22:54;-3.80;99.90
2577;DHT22;1298;51.252;6.802;2022-12-18T07:25:40;-3.80;99.90
2577;DHT22;1298;51.252;6.802;2022-12-18T07:28:27;-3.80;99.90
2577;DHT22;1298;51.252;6.802;2022-12-18T07:31:14;-3.80;99.90
2577;DHT22;1298;51.252;6.802;2022-12-18T07:33:59;-3.70;99.90
2577;DHT22;1298;51.252;6.802;2022-12-18T07:36:45;-3.70;99.90
2577;DHT22;1298;51.252;6.802;2022-12-18T07:39:31;-3.70;99.90
2577;DHT22;1298;51.252;6.802;2022-12-18T07:42:16;-3.70;99.90
2577;DHT22;1298;51.252;6.802;2022-12-18T07:45:18;-3.60;99.90
2577;DHT22;1298;51.252;6.802;2022-12-18T07:48:04;-3.50;99.90
2577;DHT22;1298;51.252;6.802;2022-12-18T07:50:49;-3.50;99.90
2577;DHT22;1298;51.252;6.802;2022-12-18T07:53:35;-3.50;99.90
2577;DHT22;1298;51.252;6.802;2022-12-18T07:56:21;-3.50;99.90
2577;DHT22;1298;51.252;6.802;2022-12-18T07:59:06;-3.40;99.90
2577;DHT22;1298;51.252;6.802;2022-12-18T08:01:54;-3.50;99.90
2577;DHT22;1298;51.252;6.802;2022-12-18T08:04:39;-3.40;99.90
2577;DHT22;1298;51.252;6.802;2022-12-18T08:07:25;-3.30;99.90
2577;DHT22;1298;51.252;6.802;2022-12-18T08:10:10;-3.20;99.90
2577;DHT22;1298;51.252;6.802;2022-12-18T08:12:56;-3.10;99.90
2577;DHT22;1298;51.252;6.802;2022-12-18T08:15:42;-3.20;99.90
2577;DHT22;1298;51.252;6.802;2022-12-18T08:18:28;-3.20;99.90
2577;DHT22;1298;51.252;6.802;2022-12-18T08:21:16;-3.20;99.90
2577;DHT22;1298;51.252;6.802;2022-12-18T08:24:02;-3.10;99.90
2577;DHT22;1298;51.252;6.802;2022-12-18T08:26:47;-3.10;99.90
2577;DHT22;1298;51.252;6.802;2022-12-18T08:29:33;-3.10;99.90
2577;DHT22;1298;51.252;6.802;2022-12-18T08:32:19;-3.10;99.90
2577;DHT22;1298;51.252;6.802;2022-12-18T08:35:07;-3.10;99.90
2577;DHT22;1298;51.252;6.802;2022-12-18T08:37:53;-3.10;99.90
2577;DHT22;1298;51.252;6.802;2022-12-18T08:40:38;-3.10;99.90
2577;DHT22;1298;51.252;6.802;2022-12-18T08:43:24;-3.00;99.90
2577;DHT22;1298;51.252;6.802;2022-12-18T08:46:43;-2.90;99.90
2577;DHT22;1298;51.252;6.802;2022-12-18T08:49:29;-2.90;99.90
2577;DHT22;1298;51.252;6.802;2022-12-18T08:52:17;-2.50;99.90
2577;DHT22;1298;51.252;6.802;2022-12-18T08:55:03;-2.40;99.90
2577;DHT22;1298;51.252;6.802;2022-12-18T08:57:49;-2.30;99.90
2577;DHT22;1298;51.252;6.802;2022-12-18T09:00:34;-2.30;99.90
2577;DHT22;1298;51.252;6.802;2022-12-18T09:03:19;-2.30;99.90
2577;DHT22;1298;51.252;6.802;2022-12-18T09:06:07;-2.30;99.90
2577;DHT22;1298;51.252;6.802;2022-12-18T09:08:54;-2.20;99.90
2577;DHT22;1298;51.252;6.802;2022-12-18T09:11:40;-2.30;99.90
2577;DHT22;1298;51.252;6.802;2022-12-18T09:14:25;-2.30;99.90
2577;DHT22;1298;51.252;6.802;2022-12-18T09:17:10;-2.30;99.90
2577;DHT22;1298;51.252;6.802;2022-12-18T09:19:56;-2.20;99.90
2577;DHT22;1298;51.252;6.802;2022-12-18T09:22:41;-2.20;99.90
2577;DHT22;1298;51.252;6.802;2022-12-18T09:25:28;-2.20;99.90
2577;DHT22;1298;51.252;6.802;2022-12-18T09:28:17;-2.10;99.90
2577;DHT22;1298;51.252;6.802;2022-12-18T09:31:04;-2.00;99.90
2577;DHT22;1298;51.252;6.802;2022-12-18T09:33:49;-1.90;99.90
2577;DHT22;1298;51.252;6.802;2022-12-18T09:36:35;-1.80;99.90
2577;DHT22;1298;51.252;6.802;2022-12-18T09:39:20;-1.70;99.90
2577;DHT22;1298;51.252;6.802;2022-12-18T09:42:09;-1.60;99.90
2577;DHT22;1298;51.252;6.802;2022-12-18T09:44:56;-1.60;99.90
2577;DHT22;1298;51.252;6.802;2022-12-18T09:47:43;-1.50;99.90
2577;DHT22;1298;51.252;6.802;2022-12-18T09:50:31;-1.30;99.90
2577;DHT22;1298;51.252;6.802;2022-12-18T09:53:17;-1.30;99.90
2577;DHT22;1298;51.252;6.802;2022-12-18T09:56:05;-1.20;99.90
2577;DHT22;1298;51.252;6.802;2022-12-18T09:58:53;-1.20;99.90
2577;DHT22;1298;51.252;6.802;2022-12-18T10:01:40;-1.20;99.90
2577;DHT22;1298;51.252;6.802;2022-12-18T10:04:25;-1.10;99.90
2577;DHT22;1298;51.252;6.802;2022-12-18T10:07:16;-1.10;99.90
2577;DHT22;1298;51.252;6.802;2022-12-18T10:10:04;-1.00;99.90
2577;DHT22;1298;51.252;6.802;2022-12-18T10:12:53;-1.00;99.90
2577;DHT22;1298;51.252;6.802;2022-12-18T10:15:44;-0.90;99.90
2577;DHT22;1298;51.252;6.802;2022-12-18T10:18:35;-0.80;99.90
2577;DHT22;1298;51.252;6.802;2022-12-18T10:21:23;-0.70;99.90
2577;DHT22;1298;51.252;6.802;2022-12-18T10:24:14;-0.60;99.90
2577;DHT22;1298;51.252;6.802;2022-12-18T10:27:09;-0.60;99.90
2577;DHT22;1298;51.252;6.802;2022-12-18T10:29:56;-0.50;99.90
2577;DHT22;1298;51.252;6.802;2022-12-18T10:32:43;-0.40;99.90
2577;DHT22;1298;51.252;6.802;2022-12-18T10:35:29;-0.40;99.90
2577;DHT22;1298;51.252;6.802;2022-12-18T10:38:21;-0.30;99.90
2577;DHT22;1298;51.252;6.802;2022-12-18T10:41:08;-0.20;99.90
2577;DHT22;1298;51.252;6.802;2022-12-18T10:44:10;-0.10;99.90
2577;DHT22;1298;51.252;6.802;2022-12-18T10:47:03;-0.10;99.90
2577;DHT22;1298;51.252;6.802;2022-12-18T10:49:51;0.10;99.90
2577;DHT22;1298;51.252;6.802;2022-12-18T10:52:39;0.10;99.90
2577;DHT22;1298;51.252;6.802;2022-12-18T10:55:24;0.20;99.90
2577;DHT22;1298;51.252;6.802;2022-12-18T10:58:21;0.20;99.90
2577;DHT22;1298;51.252;6.802;2022-12-18T11:01:09;0.30;99.90
2577;DHT22;1298;51.252;6.802;2022-12-18T11:04:02;0.30;99.90
2577;DHT22;1298;51.252;6.802;2022-12-18T11:06:58;0.40;99.90
2577;DHT22;1298;51.252;6.802;2022-12-18T11:09:43;0.50;99.90
2577;DHT22;1298;51.252;6.802;2022-12-18T11:12:28;0.50;99.90
2577;DHT22;1298;51.252;6.802;2022-12-18T11:15:15;0.60;99.90
2577;DHT22;1298;51.252;6.802;2022-12-18T11:18:01;0.60;99.90
2577;DHT22;1298;51.252;6.802;2022-12-18T11:20:50;0.70;99.90
2577;DHT22;1298;51.252;6.802;2022-12-18T11:23:44;0.90;99.90
2577;DHT22;1298;51.252;6.802;2022-12-18T11:26:33;0.90;99.90
2577;DHT22;1298;51.252;6.802;2022-12-18T11:29:22;1.00;99.90
2577;DHT22;1298;51.252;6.802;2022-12-18T11:35:11;1.00;99.90
2577;DHT22;1298;51.252;6.802;2022-12-18T11:37:59;1.10;99.90
2577;DHT22;1298;51.252;6.802;2022-12-18T11:40:49;1.10;99.90
2577;DHT22;1298;51.252;6.802;2022-12-18T11:43:38;1.10;99.90
2577;DHT22;1298;51.252;6.802;2022-12-18T11:46:26;1.10;99.90
2577;DHT22;1298;51.252;6.802;2022-12-18T11:49:14;1.10;99.90
2577;DHT22;1298;51.252;6.802;2022-12-18T11:52:01;1.10;99.90
2577;DHT22;1298;51.252;6.802;2022-12-18T11:54:50;1.10;99.90
2577;DHT22;1298;51.252;6.802;2022-12-18T11:57:39;1.10;99.90
2577;DHT22;1298;51.252;6.802;2022-12-18T12:00:29;1.10;99.90
2577;DHT22;1298;51.252;6.802;2022-12-18T12:03:18;1.10;99.90
2577;DHT22;1298;51.252;6.802;2022-12-18T12:06:08;1.10;99.90
2577;DHT22;1298;51.252;6.802;2022-12-18T12:08:58;1.10;99.90
2577;DHT22;1298;51.252;6.802;2022-12-18T12:11:48;1.10;99.90
2577;DHT22;1298;51.252;6.802;2022-12-18T12:14:42;1.10;99.90
2577;DHT22;1298;51.252;6.802;2022-12-18T12:17:32;1.00;99.90
2577;DHT22;1298;51.252;6.802;2022-12-18T12:20:21;1.10;99.90
2577;DHT22;1298;51.252;6.802;2022-12-18T12:23:13;1.00;99.90
2577;DHT22;1298;51.252;6.802;2022-12-18T12:26:01;1.10;99.90
2577;DHT22;1298;51.252;6.802;2022-12-18T12:28:52;1.00;99.90
2577;DHT22;1298;51.252;6.802;2022-12-18T12:31:48;1.00;99.90
2577;DHT22;1298;51.252;6.802;2022-12-18T12:34:39;1.00;99.90
2577;DHT22;1298;51.252;6.802;2022-12-18T12:37:32;1.00;99.90
2577;DHT22;1298;51.252;6.802;2022-12-18T12:40:26;1.00;99.90
2577;DHT22;1298;51.252;6.802;2022-12-18T12:43:16;1.00;99.90
2577;DHT22;1298;51.252;6.802;2022-12-18T12:46:05;1.00;99.90
2577;DHT22;1298;51.252;6.802;2022-12-18T12:51:56;1.00;99.90
2577;DHT22;1298;51.252;6.802;2022-12-18T12:54:43;1.00;99.90
2577;DHT22;1298;51.252;6.802;2022-12-18T12:57:30;0.90;99.90
2577;DHT22;1298;51.252;6.802;2022-12-18T13:00:16;0.90;99.90
2577;DHT22;1298;51.252;6.802;2022-12-18T13:03:04;0.80;99.90
2577;DHT22;1298;51.252;6.802;2022-12-18T13:05:54;0.80;99.90
2577;DHT22;1298;51.252;6.802;2022-12-18T13:11:47;0.80;99.90
2577;DHT22;1298;51.252;6.802;2022-12-18T13:14:50;0.80;99.90
2577;DHT22;1298;51.252;6.802;2022-12-18T13:17:35;0.80;99.90
2577;DHT22;1298;51.252;6.802;2022-12-18T13:20:21;1.00;99.90
2577;DHT22;1298;51.252;6.802;2022-12-18T13:23:23;1.00;99.90
2577;DHT22;1298;51.252;6.802;2022-12-18T13:26:30;0.90;99.90
2577;DHT22;1298;51.252;6.802;2022-12-18T13:29:40;0.90;99.90
2577;DHT22;1298;51.252;6.802;2022-12-18T13:32:25;0.80;99.90
2577;DHT22;1298;51.252;6.802;2022-12-18T13:38:20;0.80;99.90
2577;DHT22;1298;51.252;6.802;2022-12-18T13:41:20;0.80;99.90
2577;DHT22;1298;51.252;6.802;2022-12-18T13:44:10;0.70;99.90
2577;DHT22;1298;51.252;6.802;2022-12-18T13:47:00;0.80;99.90
2577;DHT22;1298;51.252;6.802;2022-12-18T13:49:46;0.80;99.90
2577;DHT22;1298;51.252;6.802;2022-12-18T13:52:33;0.80;99.90
2577;DHT22;1298;51.252;6.802;2022-12-18T13:55:19;0.70;99.90
2577;DHT22;1298;51.252;6.802;2022-12-18T13:58:05;0.60;99.90
2577;DHT22;1298;51.252;6.802;2022-12-18T14:00:51;0.60;99.90
2577;DHT22;1298;51.252;6.802;2022-12-18T14:03:38;0.60;99.90
2577;DHT22;1298;51.252;6.802;2022-12-18T14:06:24;0.60;99.90
2577;DHT22;1298;51.252;6.802;2022-12-18T14:09:10;0.60;99.90
2577;DHT22;1298;51.252;6.802;2022-12-18T14:11:58;0.60;99.90
2577;DHT22;1298;51.252;6.802;2022-12-18T14:15:02;0.60;99.90
2577;DHT22;1298;51.252;6.802;2022-12-18T14:17:49;0.60;99.90
2577;DHT22;1298;51.252;6.802;2022-12-18T14:20:36;0.60;99.90
2577;DHT22;1298;51.252;6.802;2022-12-18T14:23:28;0.60;99.90
2577;DHT22;1298;51.252;6.802;2022-12-18T14:26:22;0.60;99.90
2577;DHT22;1298;51.252;6.802;2022-12-18T14:29:19;0.50;99.90
2577;DHT22;1298;51.252;6.802;2022-12-18T14:32:05;0.50;99.90
2577;DHT22;1298;51.252;6.802;2022-12-18T14:34:51;0.50;99.90
2577;DHT22;1298;51.252;6.802;2022-12-18T14:37:39;0.50;99.90
2577;DHT22;1298;51.252;6.802;2022-12-18T14:40:24;0.40;99.90
2577;DHT22;1298;51.252;6.802;2022-12-18T14:43:10;0.40;99.90
2577;DHT22;1298;51.252;6.802;2022-12-18T14:45:55;0.40;99.90
2577;DHT22;1298;51.252;6.802;2022-12-18T14:48:41;0.40;99.90
2577;DHT22;1298;51.252;6.802;2022-12-18T14:51:29;0.40;99.90
2577;DHT22;1298;51.252;6.802;2022-12-18T14:54:17;0.30;99.90
2577;DHT22;1298;51.252;6.802;2022-12-18T14:57:04;0.30;99.90
2577;DHT22;1298;51.252;6.802;2022-12-18T14:59:49;0.30;99.90
2577;DHT22;1298;51.252;6.802;2022-12-18T15:02:35;0.30;99.90
2577;DHT22;1298;51.252;6.802;2022-12-18T15:05:23;0.30;99.90
2577;DHT22;1298;51.252;6.802;2022-12-18T15:08:24;0.30;99.90
2577;DHT22;1298;51.252;6.802;2022-12-18T15:11:27;0.20;99.90
2577;DHT22;1298;51.252;6.802;2022-12-18T15:14:23;0.20;99.90
2577;DHT22;1298;51.252;6.802;2022-12-18T15:17:14;0.20;99.90
2577;DHT22;1298;51.252;6.802;2022-12-18T15:20:02;0.20;99.90
2577;DHT22;1298;51.252;6.802;2022-12-18T15:22:48;0.10;99.90
2577;DHT22;1298;51.252;6.802;2022-12-18T15:25:34;0.20;99.90
2577;DHT22;1298;51.252;6.802;2022-12-18T15:28:23;0.10;99.90
2577;DHT22;1298;51.252;6.802;2022-12-18T15:31:20;0.10;99.90
2577;DHT22;1298;51.252;6.802;2022-12-18T15:34:11;0.20;99.90
2577;DHT22;1298;51.252;6.802;2022-12-18T15:36:58;0.30;99.90
2577;DHT22;1298;51.252;6.802;2022-12-18T15:39:43;0.30;99.90
2577;DHT22;1298;51.252;6.802;2022-12-18T15:42:29;0.20;99.90
2577;DHT22;1298;51.252;6.802;2022-12-18T15:45:33;0.20;99.90
2577;DHT22;1298;51.252;6.802;2022-12-18T15:48:20;0.20;99.90
2577;DHT22;1298;51.252;6.802;2022-12-18T15:51:08;0.10;99.90
2577;DHT22;1298;51.252;6.802;2022-12-18T15:53:55;0.10;99.90
2577;DHT22;1298;51.252;6.802;2022-12-18T15:56:40;0.10;99.90
2577;DHT22;1298;51.252;6.802;2022-12-18T15:59:44;0.10;99.90
2577;DHT22;1298;51.252;6.802;2022-12-18T16:02:30;0.10;99.90
2577;DHT22;1298;51.252;6.802;2022-12-18T16:05:16;0.00;99.90
2577;DHT22;1298;51.252;6.802;2022-12-18T16:08:01;0.00;99.90
2577;DHT22;1298;51.252;6.802;2022-12-18T16:10:47;0.00;99.90
2577;DHT22;1298;51.252;6.802;2022-12-18T16:13:32;0.00;99.90
2577;DHT22;1298;51.252;6.802;2022-12-18T16:16:17;0.00;99.90
2577;DHT22;1298;51.252;6.802;2022-12-18T16:19:04;-0.10;99.90
2577;DHT22;1298;51.252;6.802;2022-12-18T16:21:50;-0.10;99.90
2577;DHT22;1298;51.252;6.802;2022-12-18T16:24:35;-0.10;99.90
2577;DHT22;1298;51.252;6.802;2022-12-18T16:27:21;-0.10;99.90
2577;DHT22;1298;51.252;6.802;2022-12-18T16:30:08;-0.10;99.90
2577;DHT22;1298;51.252;6.802;2022-12-18T16:32:57;-0.10;99.90
2577;DHT22;1298;51.252;6.802;2022-12-18T16:35:50;-0.20;99.90
2577;DHT22;1298;51.252;6.802;2022-12-18T16:38:35;-0.20;99.90
2577;DHT22;1298;51.252;6.802;2022-12-18T16:41:21;-0.20;99.90
2577;DHT22;1298;51.252;6.802;2022-12-18T16:44:16;-0.20;99.90
2577;DHT22;1298;51.252;6.802;2022-12-18T16:47:01;-0.20;99.90
2577;DHT22;1298;51.252;6.802;2022-12-18T16:49:47;-0.20;99.90
2577;DHT22;1298;51.252;6.802;2022-12-18T16:52:37;-0.20;99.90
2577;DHT22;1298;51.252;6.802;2022-12-18T16:55:23;-0.20;99.90
2577;DHT22;1298;51.252;6.802;2022-12-18T16:58:08;-0.20;99.90
2577;DHT22;1298;51.252;6.802;2022-12-18T17:00:53;-0.20;99.90
2577;DHT22;1298;51.252;6.802;2022-12-18T17:03:39;-0.20;99.90
2577;DHT22;1298;51.252;6.802;2022-12-18T17:06:25;-0.20;99.90
2577;DHT22;1298;51.252;6.802;2022-12-18T17:09:12;-0.30;99.90
2577;DHT22;1298;51.252;6.802;2022-12-18T17:11:57;-0.30;99.90
2577;DHT22;1298;51.252;6.802;2022-12-18T17:14:43;-0.30;99.90
2577;DHT22;1298;51.252;6.802;2022-12-18T17:17:29;-0.20;99.90
2577;DHT22;1298;51.252;6.802;2022-12-18T17:20:14;-0.10;99.90
2577;DHT22;1298;51.252;6.802;2022-12-18T17:23:00;-0.20;99.90
2577;DHT22;1298;51.252;6.802;2022-12-18T17:25:46;-0.30;99.90
2577;DHT22;1298;51.252;6.802;2022-12-18T17:28:32;-0.30;99.90
2577;DHT22;1298;51.252;6.802;2022-12-18T17:31:19;-0.30;99.90
2577;DHT22;1298;51.252;6.802;2022-12-18T17:34:04;-0.30;99.90
2577;DHT22;1298;51.252;6.802;2022-12-18T17:36:49;-0.30;99.90
2577;DHT22;1298;51.252;6.802;2022-12-18T17:39:35;-0.30;99.90
2577;DHT22;1298;51.252;6.802;2022-12-18T17:42:21;-0.30;99.90
2577;DHT22;1298;51.252;6.802;2022-12-18T17:45:08;-0.40;99.90
2577;DHT22;1298;51.252;6.802;2022-12-18T17:47:53;-0.40;99.90
2577;DHT22;1298;51.252;6.802;2022-12-18T17:50:38;-0.40;99.90
2577;DHT22;1298;51.252;6.802;2022-12-18T17:53:23;-0.40;99.90
2577;DHT22;1298;51.252;6.802;2022-12-18T17:56:08;-0.40;99.90
2577;DHT22;1298;51.252;6.802;2022-12-18T17:58:56;-0.40;99.90
2577;DHT22;1298;51.252;6.802;2022-12-18T18:01:41;-0.40;99.90
2577;DHT22;1298;51.252;6.802;2022-12-18T18:04:27;-0.40;99.90
2577;DHT22;1298;51.252;6.802;2022-12-18T18:07:12;-0.40;99.90
2577;DHT22;1298;51.252;6.802;2022-12-18T18:09:57;-0.50;99.90
2577;DHT22;1298;51.252;6.802;2022-12-18T18:12:42;-0.50;99.90
2577;DHT22;1298;51.252;6.802;2022-12-18T18:15:55;-0.50;99.90
2577;DHT22;1298;51.252;6.802;2022-12-18T18:18:40;-0.50;99.90
2577;DHT22;1298;51.252;6.802;2022-12-18T18:21:26;-0.50;99.90
2577;DHT22;1298;51.252;6.802;2022-12-18T18:24:11;-0.50;99.90
2577;DHT22;1298;51.252;6.802;2022-12-18T18:26:57;-0.50;99.90
2577;DHT22;1298;51.252;6.802;2022-12-18T18:29:43;-0.50;99.90
2577;DHT22;1298;51.252;6.802;2022-12-18T18:32:30;-0.50;99.90